Time;durP1;ratioP1;P1;durP2;ratioP2;P2;SDS_P1;SDS_P2;PMS_P1;PMS_P2;Temp;Humidity;BMP_temperature;BMP_pressure;BME280_temperature;BME280_humidity;BME280_pressure;Samples;Min_cycle;Max_cycle;Signal;HPM_P1;HPM_P2
2022/09/07 00:02:03;;;;;;;6.77;6.17;;;;;;;15.72;100.00;99426.81;4940834;28;20228;-95
2022/09/07 00:04:30;;;;;;;6.53;5.93;;;;;;;15.81;100.00;99430.66;4969931;28;20267;-95
2022/09/07 00:06:57;;;;;;;6.33;5.83;;;;;;;15.75;100.00;99439.78;4959686;28;20255;-95
2022/09/07 00:09:24;;;;;;;6.97;6.37;;;;;;;15.63;100.00;99439.16;4916786;29;20237;-95
2022/09/07 00:11:51;;;;;;;6.30;5.80;;;;;;;15.62;100.00;99440.22;4951600;29;20229;-95
2022/09/07 00:14:17;;;;;;;6.10;5.70;;;;;;;15.54;100.00;99430.69;4928370;28;20291;-95
2022/09/07 00:16:44;;;;;;;6.50;6.00;;;;;;;15.54;100.00;99430.69;4943688;28;20232;-95
2022/09/07 00:19:11;;;;;;;6.63;6.07;;;;;;;15.54;100.00;99433.38;4941142;29;20228;-95
2022/09/07 00:21:38;;;;;;;7.07;6.47;;;;;;;15.53;100.00;99437.16;4918452;28;20708;-96
2022/09/07 00:24:05;;;;;;;6.70;6.20;;;;;;;15.44;100.00;99433.28;4951047;29;20692;-96
2022/09/07 00:26:31;;;;;;;6.43;5.93;;;;;;;15.40;100.00;99426.72;4926088;28;20228;-96
2022/09/07 00:29:00;;;;;;;6.43;5.83;;;;;;;15.39;100.00;99425.94;4912955;28;20232;-96
2022/09/07 00:31:29;;;;;;;6.47;5.97;;;;;;;15.34;100.00;99419.69;4934257;28;20266;-96
2022/09/07 00:33:58;;;;;;;6.43;5.83;;;;;;;15.34;100.00;99415.09;4942782;28;20282;-96
2022/09/07 00:36:25;;;;;;;6.10;5.60;;;;;;;15.33;100.00;99423.44;4922671;28;20303;-96
2022/09/07 00:38:53;;;;;;;6.40;5.80;;;;;;;15.29;100.00;99419.63;4923245;29;20241;-96
2022/09/07 00:41:20;;;;;;;6.57;6.07;;;;;;;15.27;100.00;99424.44;4930832;29;20291;-96
2022/09/07 00:43:50;;;;;;;6.00;5.60;;;;;;;15.25;100.00;99418.50;4920902;28;20285;-96
2022/09/07 00:46:21;;;;;;;6.83;6.33;;;;;;;15.24;100.00;99420.41;4937345;28;20245;-96
2022/09/07 00:48:56;;;;;;;6.50;6.07;;;;;;;15.22;100.00;99419.81;4937804;28;20710;-96
2022/09/07 00:51:30;;;;;;;6.90;6.03;;;;;;;15.26;100.00;99412.84;4927548;28;20231;-96
2022/09/07 00:54:00;;;;;;;7.50;6.17;;;;;;;15.15;100.00;99408.44;4937816;28;20236;-96
2022/09/07 00:56:31;;;;;;;6.90;6.40;;;;;;;15.11;100.00;99410.00;4935168;28;20233;-96
2022/09/07 00:58:58;;;;;;;6.93;6.20;;;;;;;15.07;100.00;99405.38;4930612;28;20232;-96
2022/09/07 01:01:26;;;;;;;7.00;6.40;;;;;;;15.03;100.00;99405.03;4938058;28;20302;-96
2022/09/07 01:03:54;;;;;;;6.67;6.17;;;;;;;14.96;100.00;99405.25;4944381;28;20252;-96
2022/09/07 01:06:24;;;;;;;7.10;6.50;;;;;;;14.91;100.00;99399.00;4954848;28;20343;-96
2022/09/07 01:08:51;;;;;;;6.90;6.40;;;;;;;14.90;100.00;99395.47;4938186;28;20236;-96
2022/09/07 01:11:20;;;;;;;6.87;6.27;;;;;;;14.91;100.00;99393.59;4930728;29;20682;-96
2022/09/07 01:13:49;;;;;;;6.37;5.87;;;;;;;14.90;100.00;99398.16;4942557;28;20248;-96
2022/09/07 01:16:28;;;;;;;6.80;6.30;;;;;;;14.84;100.00;99384.88;4920684;29;20249;-96
2022/09/07 01:19:13;;;;;;;7.27;6.70;;;;;;;14.83;100.00;99391.34;4919904;29;20292;-96
2022/09/07 01:21:55;;;;;;;7.13;6.63;;;;;;;14.83;100.00;99386.78;4942119;28;20233;-96
2022/09/07 01:24:41;;;;;;;7.47;6.77;;;;;;;14.85;100.00;99387.31;4945266;28;20298;-96
2022/09/07 01:27:26;;;;;;;6.63;6.13;;;;;;;14.83;100.00;99394.06;4955691;28;20237;-96
2022/09/07 01:30:08;;;;;;;6.97;6.47;;;;;;;14.77;100.00;99393.19;4938275;28;20790;-96
2022/09/07 01:32:55;;;;;;;7.73;6.03;;;;;;;14.69;100.00;99392.81;4935187;28;20355;-96
2022/09/07 01:35:31;;;;;;;7.30;6.70;;;;;;;14.64;100.00;99393.56;4936532;29;21494;-96
2022/09/07 01:38:13;;;;;;;7.07;6.50;;;;;;;14.59;100.00;99393.50;4942434;28;20236;-96
2022/09/07 01:41:01;;;;;;;6.60;6.10;;;;;;;14.56;100.00;99393.97;4945055;28;20239;-96
2022/09/07 01:43:58;;;;;;;6.93;6.43;;;;;;;14.51;100.00;99393.94;4939487;28;20252;-96
2022/09/07 01:46:28;;;;;;;7.30;6.67;;;;;;;14.54;100.00;99388.88;4957533;28;20236;-96
2022/09/07 01:49:01;;;;;;;7.63;6.93;;;;;;;14.50;100.00;99392.31;4974230;28;20232;-96
2022/09/07 01:51:33;;;;;;;8.13;7.53;;;;;;;14.51;100.00;99405.53;4944297;28;20247;-96
2022/09/07 01:54:06;;;;;;;8.00;7.30;;;;;;;14.48;100.00;99405.22;4934342;28;20240;-96
2022/09/07 01:56:42;;;;;;;8.23;7.53;;;;;;;14.44;100.00;99399.50;4956053;28;20228;-96
2022/09/07 01:59:16;;;;;;;8.93;8.13;;;;;;;14.42;100.00;99390.84;4942378;28;20231;-95
2022/09/07 02:01:49;;;;;;;8.13;7.53;;;;;;;14.41;100.00;99388.44;4943306;28;20235;-96
2022/09/07 02:04:27;;;;;;;9.20;8.40;;;;;;;14.39;100.00;99379.75;4924176;28;20240;-96
2022/09/07 02:07:03;;;;;;;8.57;7.87;;;;;;;14.35;100.00;99386.69;4918414;28;20231;-96
2022/09/07 02:09:31;;;;;;;8.43;7.73;;;;;;;14.33;100.00;99384.22;4957499;28;20232;-96
2022/09/07 02:12:02;;;;;;;8.70;8.00;;;;;;;14.33;100.00;99386.94;4941861;28;20236;-96
2022/09/07 02:14:45;;;;;;;8.37;7.67;;;;;;;14.29;100.00;99384.97;4945408;28;20224;-96
2022/09/07 02:17:23;;;;;;;7.90;7.30;;;;;;;14.24;100.00;99385.72;4942289;28;20336;-96
2022/09/07 02:19:53;;;;;;;7.50;6.90;;;;;;;14.23;100.00;99381.41;4943460;28;20286;-96
2022/09/07 02:22:25;;;;;;;8.20;7.60;;;;;;;14.22;100.00;99377.09;4921877;28;20236;-96
2022/09/07 02:24:55;;;;;;;7.43;6.87;;;;;;;14.19;100.00;99379.44;4929131;28;20235;-96
2022/09/07 02:27:46;;;;;;;8.20;7.50;;;;;;;14.21;100.00;99377.34;4936854;28;20224;-96
2022/09/07 02:30:13;;;;;;;7.77;7.07;;;;;;;14.23;100.00;99375.22;4925551;28;20229;-96
2022/09/07 02:32:40;;;;;;;8.53;7.03;;;;;;;14.19;100.00;99364.09;4938379;28;20681;-96
2022/09/07 02:35:07;;;;;;;8.60;7.80;;;;;;;14.16;100.00;99359.22;4929629;28;20228;-96
2022/09/07 02:37:35;;;;;;;8.37;7.67;;;;;;;14.13;100.00;99356.22;4937262;28;20324;-96
2022/09/07 02:40:02;;;;;;;7.70;7.00;;;;;;;14.08;100.00;99357.78;4933309;28;20729;-96
2022/09/07 02:42:33;;;;;;;7.73;7.13;;;;;;;14.05;100.00;99352.88;4927028;28;20646;-96
2022/09/07 02:45:03;;;;;;;8.13;7.40;;;;;;;14.05;100.00;99343.97;4918443;29;20232;-96
2022/09/07 02:47:52;;;;;;;7.73;6.87;;;;;;;14.03;100.00;99354.19;4907070;29;20241;-96
2022/09/07 02:50:29;;;;;;;8.17;7.43;;;;;;;14.00;100.00;99352.81;4904687;29;20251;-96
2022/09/07 02:53:26;;;;;;;8.77;8.17;;;;;;;14.00;100.00;99360.06;4921862;29;20250;-96
2022/09/07 02:56:06;;;;;;;8.80;7.90;;;;;;;13.96;100.00;99365.13;4913708;29;20275;-96
2022/09/07 02:58:43;;;;;;;8.47;7.77;;;;;;;13.96;100.00;99367.00;4937439;29;20247;-96
2022/09/07 03:01:31;;;;;;;8.60;7.90;;;;;;;13.96;100.00;99362.44;4920487;29;20249;-96
2022/09/07 03:04:11;;;;;;;8.43;7.73;;;;;;;13.95;100.00;99360.81;4920254;29;20286;-94
2022/09/07 03:06:42;;;;;;;8.33;7.53;;;;;;;13.95;100.00;99351.94;4930253;29;20239;-94
2022/09/07 03:09:13;;;;;;;8.40;7.67;;;;;;;13.95;100.00;99358.13;4909488;29;20249;-96
2022/09/07 03:11:40;;;;;;;8.73;7.90;;;;;;;13.93;100.00;99362.97;4918871;29;20245;-96
2022/09/07 03:14:18;;;;;;;8.80;8.10;;;;;;;13.89;100.00;99359.13;4915547;29;20257;-96
2022/09/07 03:16:49;;;;;;;8.10;7.40;;;;;;;13.89;100.00;99355.63;4905326;29;20240;-96
2022/09/07 03:19:17;;;;;;;8.80;8.10;;;;;;;13.93;100.00;99352.19;4920041;29;20256;-96
2022/09/07 03:21:43;;;;;;;8.13;7.53;;;;;;;13.90;100.00;99358.06;4914692;29;20264;-96
2022/09/07 03:24:10;;;;;;;8.67;7.97;;;;;;;13.84;100.00;99361.75;4916864;29;20333;-96
2022/09/07 03:26:40;;;;;;;8.10;7.40;;;;;;;13.84;100.00;99352.84;4900125;29;20732;-96
2022/09/07 03:29:07;;;;;;;9.00;8.13;;;;;;;13.79;100.00;99363.53;4915566;29;20235;-96
2022/09/07 03:31:34;;;;;;;8.47;7.80;;;;;;;13.79;100.00;99358.16;4913825;29;20262;-96
2022/09/07 03:34:01;;;;;;;9.27;8.33;;;;;;;13.81;100.00;99369.50;4918219;29;20265;-96
2022/09/07 03:36:28;;;;;;;9.67;8.70;;;;;;;13.72;100.00;99365.59;4932158;29;20693;-96
2022/09/07 03:38:57;;;;;;;9.57;8.70;;;;;;;13.73;100.00;99368.03;4917879;29;20779;-96
2022/09/07 03:41:25;;;;;;;9.80;8.87;;;;;;;13.71;100.00;99364.78;4908141;29;20228;-96
2022/09/07 03:43:52;;;;;;;9.80;8.90;;;;;;;13.70;100.00;99363.16;4931954;29;20241;-95
2022/09/07 03:46:19;;;;;;;9.70;8.93;;;;;;;13.68;100.00;99367.94;4928043;29;20233;-96
2022/09/07 03:48:49;;;;;;;9.60;8.80;;;;;;;13.68;100.00;99376.03;4915705;29;20300;-96
2022/09/07 03:51:16;;;;;;;9.20;8.50;;;;;;;13.66;100.00;99370.91;4916270;29;20233;-96
2022/09/07 03:53:44;;;;;;;9.53;8.73;;;;;;;13.70;100.00;99359.63;4935408;29;20229;-96
2022/09/07 03:56:16;;;;;;;9.97;9.07;;;;;;;13.66;100.00;99359.31;4911726;29;20229;-96
2022/09/07 03:58:44;;;;;;;9.83;9.13;;;;;;;13.56;100.00;99361.84;4917729;29;20262;-96
2022/09/07 04:01:16;;;;;;;9.60;8.90;;;;;;;13.55;100.00;99368.28;4915193;29;20293;-96
2022/09/07 04:03:44;;;;;;;10.20;9.30;;;;;;;13.49;100.00;99369.25;4925369;29;20241;-96
2022/09/07 04:06:11;;;;;;;9.60;8.87;;;;;;;13.51;100.00;99370.66;4920690;29;20313;-96
2022/09/07 04:08:40;;;;;;;9.53;8.83;;;;;;;13.52;100.00;99375.00;4913757;29;20239;-96
2022/09/07 04:11:11;;;;;;;9.63;8.83;;;;;;;13.53;100.00;99371.22;4936438;29;20724;-95
2022/09/07 04:13:37;;;;;;;10.50;9.60;;;;;;;13.50;100.00;99376.28;4911035;29;20242;-96
2022/09/07 04:16:30;;;;;;;10.40;9.50;;;;;;;13.51;100.00;99373.34;4930234;29;20284;-96
2022/09/07 04:18:57;;;;;;;11.03;10.13;;;;;;;13.50;100.00;99379.78;4919146;29;20229;-96
2022/09/07 04:21:26;;;;;;;10.47;9.60;;;;;;;13.50;100.00;99381.66;4923494;29;20238;-96
2022/09/07 04:23:54;;;;;;;9.90;9.10;;;;;;;13.52;100.00;99379.56;4919535;29;20720;-96
2022/09/07 04:26:23;;;;;;;11.20;10.30;;;;;;;13.50;100.00;99379.78;4926140;29;20242;-96
2022/09/07 04:28:50;;;;;;;10.83;10.03;;;;;;;13.49;100.00;99388.09;4912444;29;20332;-95
2022/09/07 04:31:18;;;;;;;11.10;10.20;;;;;;;13.47;100.00;99396.44;4896669;29;20237;-96
2022/09/07 04:33:46;;;;;;;10.40;9.60;;;;;;;13.54;100.00;99398.94;4919544;29;20768;-96
2022/09/07 04:36:14;;;;;;;11.33;10.23;;;;;;;13.58;100.00;99403.59;4904072;29;20256;-95
2022/09/07 04:38:41;;;;;;;11.70;10.67;;;;;;;13.63;100.00;99394.78;4918865;29;20234;-96
2022/09/07 04:41:12;;;;;;;11.90;10.80;;;;;;;13.64;100.00;99391.03;4904291;29;20324;-96
2022/09/07 04:43:39;;;;;;;11.43;10.50;;;;;;;13.70;100.00;99398.16;4911418;29;20244;-96
2022/09/07 04:46:10;;;;;;;11.87;10.87;;;;;;;13.74;100.00;99393.91;4916780;29;20270;-96
2022/09/07 04:48:37;;;;;;;11.53;10.70;;;;;;;13.83;100.00;99402.38;4915573;29;20230;-96
2022/09/07 04:51:06;;;;;;;12.03;10.93;;;;;;;13.92;100.00;99398.19;4910015;29;20295;-96
2022/09/07 04:53:33;;;;;;;12.30;11.20;;;;;;;13.96;100.00;99404.72;4909412;29;20244;-95
2022/09/07 04:56:00;;;;;;;11.77;10.80;;;;;;;14.01;100.00;99404.81;4926342;29;20279;-95
2022/09/07 04:58:27;;;;;;;12.70;11.70;;;;;;;14.13;100.00;99405.53;4920536;29;20237;-96
2022/09/07 05:00:54;;;;;;;12.37;11.37;;;;;;;14.23;100.00;99408.34;4930982;29;20261;-96
2022/09/07 05:03:20;;;;;;;12.53;11.43;;;;;;;14.36;100.00;99402.66;4904207;29;20713;-96
2022/09/07 05:05:48;;;;;;;12.53;11.43;;;;;;;14.43;100.00;99407.84;4916770;29;20236;-96
2022/09/07 05:08:15;;;;;;;11.27;10.30;;;;;;;14.52;100.00;99407.16;4921161;29;20218;-96
2022/09/07 05:10:50;;;;;;;12.20;11.13;;;;;;;14.66;100.00;99415.69;4917116;29;20260;-96
2022/09/07 05:13:17;;;;;;;10.93;10.03;;;;;;;14.78;100.00;99407.47;4916150;29;20328;-96
2022/09/07 05:15:44;;;;;;;12.80;11.70;;;;;;;14.92;100.00;99414.94;4914388;29;20321;-96
2022/09/07 05:18:12;;;;;;;12.20;11.27;;;;;;;15.04;100.00;99412.06;4932252;29;20309;-96
2022/09/07 05:20:40;;;;;;;12.20;11.20;;;;;;;15.20;100.00;99416.56;4931933;29;20253;-96
2022/09/07 05:23:07;;;;;;;12.73;11.63;;;;;;;15.34;100.00;99422.38;4904045;29;20241;-95
2022/09/07 05:25:34;;;;;;;13.43;12.10;;;;;;;15.49;100.00;99419.78;4919538;29;20727;-94
2022/09/07 05:28:02;;;;;;;12.60;11.63;;;;;;;15.66;100.00;99425.13;4907335;29;20230;-93
2022/09/07 05:30:29;;;;;;;12.70;11.70;;;;;;;15.80;100.00;99424.44;4907068;29;20233;-94
2022/09/07 05:33:16;;;;;;;12.90;11.80;;;;;;;15.99;100.00;99434.84;4924762;29;20268;-94
2022/09/07 05:35:42;;;;;;;12.23;11.17;;;;;;;16.17;100.00;99434.41;4915176;29;20257;-94
2022/09/07 05:38:09;;;;;;;11.80;10.90;;;;;;;16.28;100.00;99433.41;4929934;29;20240;-94
2022/09/07 05:40:36;;;;;;;12.10;10.97;;;;;;;16.42;100.00;99425.66;4921738;29;20337;-95
2022/09/07 05:43:08;;;;;;;11.63;10.63;;;;;;;16.60;100.00;99426.03;4936317;29;20234;-94
2022/09/07 05:45:35;;;;;;;12.23;11.23;;;;;;;16.77;100.00;99433.94;4931382;29;20256;-95
2022/09/07 05:48:02;;;;;;;12.43;11.43;;;;;;;16.95;100.00;99436.19;4930308;28;20261;-94
2022/09/07 05:50:28;;;;;;;12.03;11.03;;;;;;;17.14;100.00;99437.31;4912780;29;20272;-95
2022/09/07 05:52:57;;;;;;;11.90;10.90;;;;;;;17.34;100.00;99433.84;4897456;29;20249;-94
2022/09/07 05:55:24;;;;;;;13.43;12.07;;;;;;;17.47;100.00;99438.75;4915209;29;20245;-93
2022/09/07 05:57:56;;;;;;;12.03;10.93;;;;;;;17.74;100.00;99440.41;4921339;29;20241;-94
2022/09/07 06:00:23;;;;;;;12.50;11.37;;;;;;;17.79;100.00;99445.84;4902203;29;20242;-95
2022/09/07 06:02:50;;;;;;;11.70;10.70;;;;;;;17.99;100.00;99451.25;4934542;29;20241;-93
2022/09/07 06:05:18;;;;;;;13.23;12.00;;;;;;;18.18;100.00;99443.38;4903507;29;20244;-94
2022/09/07 06:07:48;;;;;;;13.03;11.50;;;;;;;18.32;100.00;99437.13;4916566;29;20258;-94
2022/09/07 06:10:14;;;;;;;12.77;11.67;;;;;;;18.46;100.00;99440.06;4904629;29;20289;-94
2022/09/07 06:13:02;;;;;;;12.67;11.57;;;;;;;18.63;100.00;99437.03;4925058;29;20230;-94
2022/09/07 06:15:31;;;;;;;12.43;11.33;;;;;;;18.77;100.00;99443.50;4906569;29;20302;-94
2022/09/07 06:17:58;;;;;;;12.93;11.73;;;;;;;18.76;100.00;99447.31;4905695;29;20717;-94
2022/09/07 06:20:25;;;;;;;12.97;11.93;;;;;;;18.79;100.00;99441.34;4899586;29;20252;-94
2022/09/07 06:22:52;;;;;;;12.93;11.80;;;;;;;18.60;100.00;99441.13;4905429;29;20234;-94
2022/09/07 06:25:19;;;;;;;12.80;11.70;;;;;;;18.49;100.00;99447.63;4913073;29;20234;-92
2022/09/07 06:27:47;;;;;;;12.97;11.87;;;;;;;18.60;100.00;99445.75;4906106;29;20249;-92
2022/09/07 06:30:14;;;;;;;12.43;11.33;;;;;;;18.70;100.00;99435.69;4920892;29;20251;-93
2022/09/07 06:32:41;;;;;;;11.97;10.90;;;;;;;18.94;100.00;99443.19;4903125;29;20243;-93
2022/09/07 06:35:08;;;;;;;12.43;11.43;;;;;;;19.14;100.00;99440.34;4904570;29;20302;-94
2022/09/07 06:37:35;;;;;;;12.43;11.43;;;;;;;19.36;100.00;99440.78;4937580;28;20257;-93
2022/09/07 06:40:02;;;;;;;12.63;11.70;;;;;;;19.49;100.00;99442.06;4936878;28;20228;-91
2022/09/07 06:42:29;;;;;;;13.33;11.97;;;;;;;19.56;100.00;99434.41;4931156;29;20224;-92
2022/09/07 06:44:57;;;;;;;12.23;11.13;;;;;;;19.64;100.00;99440.03;4933171;28;20262;-93
2022/09/07 06:47:24;;;;;;;13.30;12.10;;;;;;;19.85;100.00;99442.63;4938915;29;20252;-91
2022/09/07 06:49:50;;;;;;;12.57;11.57;;;;;;;20.01;100.00;99439.50;4940937;28;20267;-95
2022/09/07 06:52:17;;;;;;;12.80;11.70;;;;;;;20.05;100.00;99442.44;4920990;29;20229;-96
2022/09/07 06:54:44;;;;;;;13.57;12.23;;;;;;;20.02;100.00;99432.94;4935111;29;20266;-96
2022/09/07 06:57:27;;;;;;;12.07;11.07;;;;;;;20.12;100.00;99446.44;4945471;29;20233;-95
2022/09/07 06:59:53;;;;;;;12.67;11.63;;;;;;;20.29;100.00;99429.69;4916425;29;20320;-95
2022/09/07 07:02:20;;;;;;;12.40;11.30;;;;;;;20.37;100.00;99439.97;4936867;28;20239;-96
2022/09/07 07:04:48;;;;;;;11.37;10.37;;;;;;;20.41;100.00;99441.03;4934958;28;20238;-95
2022/09/07 07:07:15;;;;;;;11.57;10.67;;;;;;;20.65;100.00;99444.56;4915852;29;20248;-96
2022/09/07 07:09:42;;;;;;;10.73;9.93;;;;;;;20.81;100.00;99447.13;4948715;29;20234;-94
2022/09/07 07:12:09;;;;;;;11.40;10.50;;;;;;;20.83;100.00;99451.16;4937638;29;20244;-95
2022/09/07 07:14:36;;;;;;;12.17;11.00;;;;;;;20.75;100.00;99453.72;4946080;29;20322;-96
2022/09/07 07:17:09;;;;;;;11.60;10.60;;;;;;;20.85;100.00;99448.16;4937705;29;20230;-96
2022/09/07 07:19:36;;;;;;;12.67;11.50;;;;;;;21.05;100.00;99445.97;4950727;29;20766;-95
2022/09/07 07:22:03;;;;;;;11.38;10.52;;;;;;;21.17;100.00;99447.50;4952137;29;20236;-96
2022/09/07 07:24:49;;;;;;;11.43;10.50;;;;;;;21.24;100.00;99454.19;4918839;29;20323;-95
2022/09/07 07:27:16;;;;;;;12.27;11.27;;;;;;;21.30;100.00;99450.28;4944905;29;20275;-96
2022/09/07 07:29:44;;;;;;;11.95;11.02;;;;;;;21.36;100.00;99456.50;4941190;29;20323;-95
2022/09/07 07:32:10;;;;;;;12.73;11.63;;;;;;;21.41;100.00;99454.50;4948607;28;20324;-95
2022/09/07 07:34:37;;;;;;;12.17;11.27;;;;;;;21.63;100.00;99461.25;4929224;29;20717;-95
2022/09/07 07:37:04;;;;;;;11.50;10.60;;;;;;;21.73;100.00;99450.22;4936989;29;20237;-95
2022/09/07 07:39:31;;;;;;;12.15;11.02;;;;;;;21.86;100.00;99450.25;4930357;29;20237;-95
2022/09/07 07:42:17;;;;;;;11.63;10.73;;;;;;;21.74;100.00;99447.16;4934058;29;20233;-95
2022/09/07 07:44:44;;;;;;;11.73;10.82;;;;;;;21.80;100.00;99456.88;4921418;29;20241;-94
2022/09/07 07:47:11;;;;;;;11.57;10.55;;;;;;;21.82;100.00;99454.69;4891528;29;20237;-94
2022/09/07 07:49:37;;;;;;;12.98;11.98;;;;;;;21.86;100.00;99449.44;4916102;29;20249;-95
2022/09/07 07:52:05;;;;;;;12.00;11.00;;;;;;;21.87;100.00;99440.16;4908981;29;20245;-94
2022/09/07 07:54:52;;;;;;;11.27;10.27;;;;;;;21.87;100.00;99448.34;4926356;29;20241;-96
2022/09/07 07:57:19;;;;;;;11.50;10.50;;;;;;;21.90;100.00;99448.53;4914180;29;20233;-95
2022/09/07 07:59:45;;;;;;;10.10;9.20;;;;;;;21.96;100.00;99443.84;4901322;29;20230;-94
2022/09/07 08:02:14;;;;;;;10.60;9.80;;;;;;;22.05;100.00;99452.16;4909342;29;20243;-94
2022/09/07 08:04:41;;;;;;;9.77;8.80;;;;;;;22.10;100.00;99458.34;4901471;29;20239;-94
2022/09/07 08:07:10;;;;;;;10.15;9.35;;;;;;;22.16;100.00;99459.84;4897530;29;20228;-95
2022/09/07 08:09:39;;;;;;;8.88;8.15;;;;;;;22.20;100.00;99462.81;4919851;29;20238;-94
2022/09/07 08:12:06;;;;;;;10.40;9.60;;;;;;;22.25;100.00;99463.53;4899853;29;20266;-94
2022/09/07 08:14:35;;;;;;;10.15;9.35;;;;;;;22.30;98.33;99463.41;4916002;29;20678;-94
2022/09/07 08:17:02;;;;;;;10.70;9.75;;;;;;;22.40;96.30;99459.69;4917289;29;20264;-95
2022/09/07 08:19:28;;;;;;;10.45;9.40;;;;;;;22.48;96.43;99455.47;4910707;29;20244;-95
2022/09/07 08:21:55;;;;;;;10.43;9.60;;;;;;;22.46;96.74;99446.78;4919958;29;20240;-94
2022/09/07 08:24:22;;;;;;;11.20;10.20;;;;;;;22.51;95.67;99450.22;4902253;29;20238;-95
2022/09/07 08:26:48;;;;;;;10.48;9.60;;;;;;;22.57;97.16;99442.75;4935316;29;20248;-94
2022/09/07 08:29:15;;;;;;;10.65;9.75;;;;;;;22.62;95.54;99445.38;4935245;29;20225;-96
2022/09/07 08:31:43;;;;;;;10.45;9.38;;;;;;;22.66;95.26;99444.47;4918225;29;20238;-95
2022/09/07 08:34:10;;;;;;;10.68;9.68;;;;;;;22.69;96.15;99443.84;4900650;29;20253;-95
2022/09/07 08:36:36;;;;;;;11.48;10.48;;;;;;;22.71;95.96;99440.88;4901191;29;20728;-94
2022/09/07 08:39:03;;;;;;;11.00;9.93;;;;;;;22.70;96.28;99431.03;4925125;29;20238;-94
2022/09/07 08:41:55;;;;;;;11.60;10.25;;;;;;;22.45;98.53;99431.50;4904329;29;20325;-95
2022/09/07 08:44:29;;;;;;;9.95;9.15;;;;;;;22.51;100.00;99442.03;4933747;29;20226;-95
2022/09/07 08:47:05;;;;;;;10.55;9.45;;;;;;;22.62;99.08;99432.53;4931153;29;20233;-96
2022/09/07 08:50:11;;;;;;;10.88;9.80;;;;;;;22.66;100.00;99432.75;4948030;29;20275;-95
2022/09/07 08:53:07;;;;;;;12.18;11.07;;;;;;;22.83;96.35;99431.03;4967387;28;20237;-95
2022/09/07 08:55:55;;;;;;;12.07;11.00;;;;;;;22.73;99.69;99431.25;4951427;28;20319;-95
2022/09/07 08:58:46;;;;;;;11.45;10.00;;;;;;;22.76;99.57;99433.38;4941015;28;20233;-95
2022/09/07 09:01:18;;;;;;;10.45;9.55;;;;;;;22.76;98.15;99433.38;4905558;29;20221;-96
2022/09/07 09:04:01;;;;;;;9.93;9.13;;;;;;;22.92;99.41;99433.03;4920585;29;20252;-94
2022/09/07 09:07:16;;;;;;;9.07;8.38;;;;;;;22.97;97.82;99425.56;4926988;29;20240;-94
2022/09/07 09:10:07;;;;;;;9.43;8.63;;;;;;;23.10;96.81;99429.38;4955034;28;20234;-95
2022/09/07 09:13:00;;;;;;;9.75;8.75;;;;;;;23.25;95.82;99431.78;4948161;29;20684;-96
2022/09/07 09:15:40;;;;;;;9.43;8.52;;;;;;;23.44;94.55;99429.72;4934249;29;20288;-94
2022/09/07 09:18:19;;;;;;;10.50;9.45;;;;;;;23.55;88.65;99427.56;4951716;28;20234;-94
2022/09/07 09:20:51;;;;;;;9.95;9.15;;;;;;;23.51;90.79;99421.91;4956779;28;20244;-95
2022/09/07 09:23:19;;;;;;;10.48;9.50;;;;;;;23.47;91.02;99420.13;4942009;29;20285;-95
2022/09/07 09:25:53;;;;;;;9.63;8.65;;;;;;;23.47;91.51;99411.91;4933927;28;20234;-94
2022/09/07 09:28:20;;;;;;;14.20;9.43;;;;;;;23.62;90.99;99417.81;4941012;28;20281;-95
2022/09/07 09:30:47;;;;;;;8.80;7.90;;;;;;;23.56;93.60;99416.31;4934523;29;20230;-94
2022/09/07 09:33:19;;;;;;;9.65;8.75;;;;;;;23.80;86.85;99418.72;4934245;29;20243;-95
2022/09/07 09:35:48;;;;;;;9.80;8.95;;;;;;;23.91;86.64;99403.69;4933969;28;20239;-94
2022/09/07 09:38:34;;;;;;;7.90;7.22;;;;;;;23.65;83.82;99408.19;4928265;29;20243;-94
2022/09/07 09:41:10;;;;;;;7.70;7.00;;;;;;;23.77;83.03;99404.88;4926542;29;20237;-95
2022/09/07 09:43:44;;;;;;;8.18;7.38;;;;;;;24.10;80.23;99404.28;4930310;29;20237;-94
2022/09/07 09:46:30;;;;;;;7.65;6.80;;;;;;;24.27;80.66;99395.38;4928191;29;20238;-94
2022/09/07 09:48:58;;;;;;;7.13;6.53;;;;;;;24.46;77.62;99389.66;4939292;29;20227;-93
2022/09/07 09:51:27;;;;;;;7.50;6.35;;;;;;;24.53;78.06;99392.75;4907438;29;20284;-95
2022/09/07 09:54:14;;;;;;;7.55;6.95;;;;;;;24.27;76.74;99381.69;4907818;29;20767;-94
2022/09/07 09:56:43;;;;;;;6.72;6.13;;;;;;;24.58;76.88;99380.84;4903815;29;20234;-94
2022/09/07 09:59:11;;;;;;;9.35;6.65;;;;;;;24.74;74.43;99376.53;4897503;29;20241;-94
2022/09/07 10:02:20;;;;;;;6.93;6.15;;;;;;;24.89;73.01;99373.38;4919165;29;20241;-96
2022/09/07 10:05:22;;;;;;;6.70;6.20;;;;;;;25.15;69.97;99376.94;4892888;29;20237;-93
2022/09/07 10:07:51;;;;;;;6.63;6.03;;;;;;;25.32;69.98;99376.97;4912667;29;20838;-95
2022/09/07 10:10:18;;;;;;;6.20;5.70;;;;;;;25.48;67.83;99368.22;4912516;29;20238;-96
2022/09/07 10:12:45;;;;;;;6.85;6.00;;;;;;;25.55;66.29;99376.81;4920507;29;20248;-95
2022/09/07 10:15:44;;;;;;;6.32;5.78;;;;;;;25.49;66.36;99369.84;4906574;29;20297;-95
2022/09/07 10:18:24;;;;;;;5.80;5.30;;;;;;;25.56;65.74;99362.78;4878921;29;20228;-95
2022/09/07 10:20:51;;;;;;;6.28;5.55;;;;;;;25.64;67.00;99356.47;4896390;29;20323;-95
2022/09/07 10:23:22;;;;;;;7.32;5.70;;;;;;;25.63;66.00;99352.09;4905533;29;20229;-96
2022/09/07 10:25:49;;;;;;;7.43;5.80;;;;;;;25.20;68.66;99359.53;4922465;29;20782;-93
2022/09/07 10:28:20;;;;;;;7.95;6.20;;;;;;;25.42;68.12;99351.97;4913901;29;20255;-95
2022/09/07 10:31:09;;;;;;;6.25;5.70;;;;;;;25.55;64.52;99350.19;4926911;29;20239;-96
2022/09/07 10:34:11;;;;;;;6.32;5.82;;;;;;;25.80;64.11;99351.28;4923031;29;20230;-93
2022/09/07 10:37:03;;;;;;;7.63;6.07;;;;;;;25.94;63.78;99353.81;4913441;29;20245;-96
2022/09/07 10:39:41;;;;;;;5.85;5.22;;;;;;;26.07;63.90;99353.63;4921434;29;20234;-95
2022/09/07 10:42:08;;;;;;;7.95;5.20;;;;;;;26.28;63.63;99342.72;4917096;29;20237;-95
2022/09/07 10:45:00;;;;;;;6.22;5.63;;;;;;;26.49;62.41;99351.84;4932983;29;20241;-95
2022/09/07 10:47:43;;;;;;;6.20;5.70;;;;;;;26.60;60.84;99346.75;4936664;29;20237;-95
2022/09/07 10:50:31;;;;;;;6.10;5.50;;;;;;;26.42;61.28;99348.81;4937417;29;20276;-95
2022/09/07 10:53:20;;;;;;;6.88;5.45;;;;;;;25.99;61.43;99343.47;4916897;29;20585;-95
2022/09/07 10:56:10;;;;;;;6.10;5.57;;;;;;;26.40;61.17;99342.84;4923319;29;20242;-95
2022/09/07 10:58:42;;;;;;;6.50;5.90;;;;;;;26.67;61.36;99339.63;4936817;29;20244;-95
2022/09/07 11:01:51;;;;;;;7.38;6.13;;;;;;;26.66;59.07;99339.94;4932583;29;20230;-96
2022/09/07 11:04:36;;;;;;;6.03;5.50;;;;;;;26.48;59.85;99336.50;4928913;29;20240;-96
2022/09/07 11:07:14;;;;;;;5.82;5.20;;;;;;;26.73;58.49;99338.31;4936868;29;20244;-95
2022/09/07 11:09:53;;;;;;;6.10;5.38;;;;;;;26.98;58.14;99331.03;4927561;29;20241;-95
2022/09/07 11:12:28;;;;;;;5.75;5.25;;;;;;;27.07;56.58;99333.69;4933585;29;20238;-95
2022/09/07 11:15:34;;;;;;;6.95;5.18;;;;;;;27.10;56.63;99322.06;4937264;29;20667;-96
2022/09/07 11:18:32;;;;;;;5.65;5.15;;;;;;;27.46;55.85;99315.91;4887811;29;20309;-95
2022/09/07 11:20:59;;;;;;;6.20;5.20;;;;;;;27.58;55.94;99313.19;4898378;29;20321;-96
2022/09/07 11:24:00;;;;;;;5.68;5.05;;;;;;;27.67;54.40;99304.88;4921173;29;20272;-95
2022/09/07 11:26:36;;;;;;;5.47;5.07;;;;;;;27.61;55.21;99307.03;4878425;29;20241;-93
2022/09/07 11:29:13;;;;;;;7.53;5.70;;;;;;;27.64;53.02;99305.53;4917794;29;20264;-94
2022/09/07 11:32:03;;;;;;;5.32;4.80;;;;;;;27.69;53.89;99294.31;4910284;29;20239;-95
2022/09/07 11:34:54;;;;;;;6.32;5.15;;;;;;;27.80;54.60;99292.75;4911123;29;20249;-95
2022/09/07 11:37:30;;;;;;;6.32;5.40;;;;;;;28.07;52.07;99286.59;4930923;29;20639;-93
2022/09/07 11:40:11;;;;;;;5.25;4.82;;;;;;;28.31;50.75;99281.09;4920046;29;20241;-95
2022/09/07 11:42:48;;;;;;;5.43;4.68;;;;;;;28.50;50.81;99276.97;4923469;29;20248;-96
2022/09/07 11:45:24;;;;;;;5.57;5.07;;;;;;;28.70;49.63;99274.03;4925645;28;20811;-93
2022/09/07 11:48:03;;;;;;;5.28;4.85;;;;;;;28.79;48.66;99273.91;4914366;29;20323;-96
2022/09/07 11:50:33;;;;;;;6.63;4.65;;;;;;;28.68;48.82;99278.31;4914506;29;20693;-96